Ocean Falls, Canada
Current Conditions -  °F | °C
As of 5:00 PM on Friday 28 Nov 2014 (Local Time) from CYBD Reporting Station
Scattered Clouds Scattered Clouds  
Wind Chill: -17°   Ceiling: Unl
Heat Index: -10°   Visibility: 15mi
Dew Point: -21°   Wind: 10mph
Humidity: 41%   Direction: 90°E
Pressure: 30.02"   Gusts: 35mph
Location:  52.35°N, 127.7°W
Report Text: CYBD 290100Z 09009G30KT 060V130 15SM SCT056TCU M10/M21 A3002 RMK TCU4 TR CU LAST OBS/NEXT 291500UTC/ SLP170
Loading
Personal Weather Stations






























Interactive Weather Map New forecast layout! Learn more

10-Day Weather Forecast

Advertisements
Track Severe Weather on mobile